Celebrity Solstice — 9HRJ9 — position and weather

sailwx.info

Track history (hours):
 
Tides and Currents Weather Stations Pressure Air Temp Water Temp Dewpoint Dewpoint Depression Visibility Wind Speed Wind Dir Waves Ship Positions

Celebrity Solstice

Last reported at 2020-Apr-02 21:30 UTC. Time now 2020-Apr-02 22:06 UTC.
Position S 34°26' E 151°58'.

Length 317 m; draft 8.6 m.

Type: Ship. MMSI: 249409000.

Date/timePositionNaut miles runAvg speedWind from/ knotsBaromVisibWave heightAir tempDewpointWater temp
2020-Apr-02 21:30S 34°26' E 151°58'1 0.7
2020-Apr-02 20:35S 34°26' E 151°58'1 0.6
2020-Apr-02 19:30S 34°25' E 151°57'0 0.4
2020-Apr-02 19:00S 34°25' E 151°57'3180.5
2020-Apr-02 19:00S 34°24' E 151°54'2 5.1 310 / 111011.0 21.821.324.6
2020-Apr-02 18:30S 34°25' E 151°57'7 2.9
2020-Apr-02 16:00S 34°18' E 151°54'5 9.2 310 / 171012.010.8 21.016.120.0
2020-Apr-02 15:27S 34°23' E 151°54'715.6
2020-Apr-02 15:00S 34°18' E 151°48'0 0.0 310 / 161012.010.8 21.016.120.0
2020-Apr-02 14:00S 34°18' E 151°48'4 6.1 330 / 221016.010.8 22.0 9.019.0
2020-Apr-02 13:20S 34°20' E 151°52'4 3.0
2020-Apr-02 12:00S 34°18' E 151°48'2 4.3 340 / 321012.0 5.4 22.3 24.9
2020-Apr-02 11:38S 34°17' E 151°50'1 2.3
2020-Apr-02 10:59S 34°16' E 151°48'1 2.3
2020-Apr-02 10:24S 34°15' E 151°48'2 2.2
2020-Apr-02 09:30S 34°13' E 151°46'3 2.1
2020-Apr-02 07:59S 34°11' E 151°44'1 2.1
2020-Apr-02 07:30S 34°10' E 151°43'12 6.0
2020-Apr-02 05:30S 34°22' E 151°41'  
2020-Mar-30 17:25S 34°09' E 151°27'7 7.4
2020-Mar-30 16:30S 34°06' E 151°35'14 7.0
2020-Mar-30 14:30S 34°02' E 151°51'3 6.8
2020-Mar-30 14:00S 34°01' E 151°54'10 5.0
2020-Mar-30 12:00S 34°09' E 152°01'7 4.8
2020-Mar-30 10:30S 34°16' E 151°59'3 1.3
2020-Mar-30 08:30S 34°14' E 152°01'1 1.5
2020-Mar-30 08:00S 34°13' E 152°01'4 1.8
2020-Mar-30 05:47S 34°09' E 152°01'1 2.1
2020-Mar-30 05:30S 34°09' E 152°01'10 2.2
2020-Mar-30 01:12S 33°59' E 152°01'3 1.0
2020-Mar-29 22:30S 33°56' E 152°02'1 1.0
2020-Mar-29 21:30S 33°55' E 152°01'1 1.0
2020-Mar-29 20:30S 33°54' E 152°01'1 1.3
2020-Mar-29 19:30S 33°53' E 152°01'1 2.0
2020-Mar-29 18:54S 33°52' E 152°01'3 2.2
2020-Mar-29 17:44S 33°49' E 152°02'1 2.2
2020-Mar-29 17:30S 33°49' E 152°02'9 2.8
2020-Mar-29 14:18S 33°40' E 152°02'4 2.5
2020-Mar-29 12:40S 33°36' E 151°60'1 6.5
2020-Mar-29 12:30S 33°37' E 151°59'7 6.6
2020-Mar-29 11:30S 33°43' E 151°55'16 6.3
2020-Mar-29 09:00S 33°55' E 151°43'4 0.7
2020-Mar-29 03:30S 33°59' E 151°43'2 2.0
2020-Mar-29 02:28S 33°57' E 151°45'19 1.8
2020-Mar-28 15:30S 33°41' E 151°58'4 1.1
2020-Mar-28 12:05S 33°42' E 151°53'2 2.4
2020-Mar-28 11:16S 33°42' E 151°55'11 0.8
2020-Mar-27 22:00S 33°31' E 151°54'0 0.8
2020-Mar-27 21:22S 33°31' E 151°54'15 0.6
2020-Mar-26 18:00S 33°46' E 151°59'3 6.4
2020-Mar-26 17:30S 33°49' E 151°59'11 4.5
2020-Mar-26 15:00S 33°46' E 151°46'10 6.6
2020-Mar-26 13:30S 33°36' E 151°46'5 1.3
2020-Mar-26 10:00S 33°33' E 151°50'4 1.6
2020-Mar-26 07:16S 33°35' E 151°54'0 1.7
2020-Mar-26 07:00S 33°35' E 151°55'13 1.2
2020-Mar-25 20:30S 33°46' E 151°46'15 3.0
2020-Mar-25 15:30S 33°36' E 151°60'13 6.7
2020-Mar-25 13:30S 33°50' E 151°58'4 6.5
2020-Mar-25 12:49S 33°50' E 151°53'13 5.3
2020-Mar-25 10:25S 33°39' E 151°46'11 4.1
2020-Mar-25 07:50S 33°28' E 151°48'4 1.8
2020-Mar-25 05:24S 33°31' E 151°52'17 1.8
2020-Mar-24 20:00S 33°48' E 151°59'3 5.5
2020-Mar-24 19:30S 33°50' E 151°57'3 6.9
2020-Mar-24 19:00S 33°50' E 151°53'7 4.9
2020-Mar-24 17:30S 33°46' E 151°46'3 6.6
2020-Mar-24 17:00S 33°42' E 151°46'10 6.7
2020-Mar-24 15:30S 33°32' E 151°46'11 6.5
2020-Mar-24 13:45S 33°31' E 151°60'2 6.5
2020-Mar-24 13:22S 33°33' E 152°00'3 6.5
2020-Mar-24 12:55S 33°36' E 151°60'18 6.1
2020-Mar-24 10:00S 33°53' E 151°51'10 6.9
2020-Mar-24 08:30S 33°57' E 151°40'0 0.9
2020-Mar-24 08:00S 33°57' E 151°40'1 1.7
2020-Mar-24 07:28S 33°57' E 151°41'3 1.4
2020-Mar-24 05:24S 33°55' E 151°44'4 1.0
2020-Mar-24 01:29S 33°53' E 151°48'1 0.8
2020-Mar-24 00:30S 33°53' E 151°49'1 1.3
2020-Mar-23 23:27S 33°52' E 151°50'  
Track history (hours):
 
Tides and Currents Weather Stations Pressure Air Temp Water Temp Dewpoint Dewpoint Depression Visibility Wind Speed Wind Dir Waves Ship Positions

Celebrity Solstice

Last reported at 2020-Apr-02 21:30 UTC. Time now 2020-Apr-02 22:06 UTC.
Position S 34°26' E 151°58'.

Length 317 m; draft 8.6 m.

Type: Ship. MMSI: 249409000.

Date/timePositionNaut miles runAvg speedWind from/ knotsBaromVisibWave heightAir tempDewpointWater temp
2020-Apr-02 21:30S 34°26' E 151°58'1 0.7
2020-Apr-02 20:35S 34°26' E 151°58'1 0.6
2020-Apr-02 19:30S 34°25' E 151°57'0 0.4
2020-Apr-02 19:00S 34°25' E 151°57'3180.5
2020-Apr-02 19:00S 34°24' E 151°54'2 5.1 310 / 111011.0 21.821.324.6
2020-Apr-02 18:30S 34°25' E 151°57'7 2.9
2020-Apr-02 16:00S 34°18' E 151°54'5 9.2 310 / 171012.010.8 21.016.120.0
2020-Apr-02 15:27S 34°23' E 151°54'715.6
2020-Apr-02 15:00S 34°18' E 151°48'0 0.0 310 / 161012.010.8 21.016.120.0
2020-Apr-02 14:00S 34°18' E 151°48'4 6.1 330 / 221016.010.8 22.0 9.019.0
2020-Apr-02 13:20S 34°20' E 151°52'4 3.0
2020-Apr-02 12:00S 34°18' E 151°48'2 4.3 340 / 321012.0 5.4 22.3 24.9
2020-Apr-02 11:38S 34°17' E 151°50'1 2.3
2020-Apr-02 10:59S 34°16' E 151°48'1 2.3
2020-Apr-02 10:24S 34°15' E 151°48'2 2.2
2020-Apr-02 09:30S 34°13' E 151°46'3 2.1
2020-Apr-02 07:59S 34°11' E 151°44'1 2.1
2020-Apr-02 07:30S 34°10' E 151°43'12 6.0
2020-Apr-02 05:30S 34°22' E 151°41'  
2020-Mar-30 17:25S 34°09' E 151°27'7 7.4
2020-Mar-30 16:30S 34°06' E 151°35'14 7.0
2020-Mar-30 14:30S 34°02' E 151°51'3 6.8
2020-Mar-30 14:00S 34°01' E 151°54'10 5.0
2020-Mar-30 12:00S 34°09' E 152°01'7 4.8
2020-Mar-30 10:30S 34°16' E 151°59'3 1.3
2020-Mar-30 08:30S 34°14' E 152°01'1 1.5
2020-Mar-30 08:00S 34°13' E 152°01'4 1.8
2020-Mar-30 05:47S 34°09' E 152°01'1 2.1
2020-Mar-30 05:30S 34°09' E 152°01'10 2.2
2020-Mar-30 01:12S 33°59' E 152°01'3 1.0
2020-Mar-29 22:30S 33°56' E 152°02'1 1.0
2020-Mar-29 21:30S 33°55' E 152°01'1 1.0
2020-Mar-29 20:30S 33°54' E 152°01'1 1.3
2020-Mar-29 19:30S 33°53' E 152°01'1 2.0
2020-Mar-29 18:54S 33°52' E 152°01'3 2.2
2020-Mar-29 17:44S 33°49' E 152°02'1 2.2
2020-Mar-29 17:30S 33°49' E 152°02'9 2.8
2020-Mar-29 14:18S 33°40' E 152°02'4 2.5
2020-Mar-29 12:40S 33°36' E 151°60'1 6.5
2020-Mar-29 12:30S 33°37' E 151°59'7 6.6
2020-Mar-29 11:30S 33°43' E 151°55'16 6.3
2020-Mar-29 09:00S 33°55' E 151°43'4 0.7
2020-Mar-29 03:30S 33°59' E 151°43'2 2.0
2020-Mar-29 02:28S 33°57' E 151°45'19 1.8
2020-Mar-28 15:30S 33°41' E 151°58'4 1.1
2020-Mar-28 12:05S 33°42' E 151°53'2 2.4
2020-Mar-28 11:16S 33°42' E 151°55'11 0.8
2020-Mar-27 22:00S 33°31' E 151°54'0 0.8
2020-Mar-27 21:22S 33°31' E 151°54'15 0.6
2020-Mar-26 18:00S 33°46' E 151°59'3 6.4
2020-Mar-26 17:30S 33°49' E 151°59'11 4.5
2020-Mar-26 15:00S 33°46' E 151°46'10 6.6
2020-Mar-26 13:30S 33°36' E 151°46'5 1.3
2020-Mar-26 10:00S 33°33' E 151°50'4 1.6
2020-Mar-26 07:16S 33°35' E 151°54'0 1.7
2020-Mar-26 07:00S 33°35' E 151°55'13 1.2
2020-Mar-25 20:30S 33°46' E 151°46'15 3.0
2020-Mar-25 15:30S 33°36' E 151°60'13 6.7
2020-Mar-25 13:30S 33°50' E 151°58'4 6.5
2020-Mar-25 12:49S 33°50' E 151°53'13 5.3
2020-Mar-25 10:25S 33°39' E 151°46'11 4.1
2020-Mar-25 07:50S 33°28' E 151°48'4 1.8
2020-Mar-25 05:24S 33°31' E 151°52'17 1.8
2020-Mar-24 20:00S 33°48' E 151°59'3 5.5
2020-Mar-24 19:30S 33°50' E 151°57'3 6.9
2020-Mar-24 19:00S 33°50' E 151°53'7 4.9
2020-Mar-24 17:30S 33°46' E 151°46'3 6.6
2020-Mar-24 17:00S 33°42' E 151°46'10 6.7
2020-Mar-24 15:30S 33°32' E 151°46'11 6.5
2020-Mar-24 13:45S 33°31' E 151°60'2 6.5
2020-Mar-24 13:22S 33°33' E 152°00'3 6.5
2020-Mar-24 12:55S 33°36' E 151°60'18 6.1
2020-Mar-24 10:00S 33°53' E 151°51'10 6.9
2020-Mar-24 08:30S 33°57' E 151°40'0 0.9
2020-Mar-24 08:00S 33°57' E 151°40'1 1.7
2020-Mar-24 07:28S 33°57' E 151°41'3 1.4
2020-Mar-24 05:24S 33°55' E 151°44'4 1.0
2020-Mar-24 01:29S 33°53' E 151°48'1 0.8
2020-Mar-24 00:30S 33°53' E 151°49'1 1.3
2020-Mar-23 23:27S 33°52' E 151°50'  

Dump ship's entire track history